Time;durP1;ratioP1;P1;durP2;ratioP2;P2;SDS_P1;SDS_P2;PMS_P1;PMS_P2;Temp;Humidity;BMP_temperature;BMP_pressure;BME280_temperature;BME280_humidity;BME280_pressure;Samples;Min_cycle;Max_cycle;Signal;HPM_P1;HPM_P2
2022/10/30 00:00:40;;;;;;;7.40;6.68;;;23.00;51.40;;;;;;4979076;28;20059;-63
2022/10/30 00:03:15;;;;;;;7.80;6.20;;;23.00;51.40;;;;;;4977901;28;20396;-62
2022/10/30 00:05:44;;;;;;;7.05;6.10;;;23.00;51.40;;;;;;4978733;28;20062;-62
2022/10/30 00:08:13;;;;;;;7.90;6.50;;;23.00;51.40;;;;;;4978764;28;20050;-59
2022/10/30 00:10:41;;;;;;;6.95;6.25;;;23.00;51.50;;;;;;4977338;28;20061;-62
2022/10/30 00:13:08;;;;;;;7.13;6.20;;;23.00;51.40;;;;;;4978910;28;20047;-62
2022/10/30 00:15:36;;;;;;;7.47;6.25;;;23.00;51.40;;;;;;4978673;28;20046;-62
2022/10/30 00:18:04;;;;;;;7.05;6.18;;;23.00;51.40;;;;;;4978365;28;20057;-62
2022/10/30 00:20:31;;;;;;;7.43;6.63;;;22.90;51.40;;;;;;4978527;28;20109;-62
2022/10/30 00:22:58;;;;;;;8.20;6.93;;;23.00;51.50;;;;;;4978395;28;20498;-62
2022/10/30 00:25:26;;;;;;;7.57;6.50;;;23.00;51.50;;;;;;4978693;28;20402;-62
2022/10/30 00:27:53;;;;;;;7.53;6.43;;;23.00;51.50;;;;;;4978346;28;20051;-62
2022/10/30 00:30:20;;;;;;;7.65;6.63;;;22.90;51.40;;;;;;4978714;28;20058;-62
2022/10/30 00:32:47;;;;;;;7.13;6.25;;;22.90;51.40;;;;;;4978255;28;20053;-62
2022/10/30 00:35:14;;;;;;;6.68;5.80;;;22.90;51.50;;;;;;4977150;28;20057;-62
2022/10/30 00:37:41;;;;;;;7.30;6.43;;;23.00;51.50;;;;;;4978434;28;20051;-62
2022/10/30 00:40:17;;;;;;;6.68;5.97;;;22.90;51.50;;;;;;4978248;28;20518;-62
2022/10/30 00:42:45;;;;;;;7.57;6.43;;;22.90;51.50;;;;;;4979267;28;20046;-62
2022/10/30 00:45:13;;;;;;;6.88;5.82;;;22.90;51.50;;;;;;4978064;28;20059;-62
2022/10/30 00:47:45;;;;;;;7.43;6.30;;;22.90;51.60;;;;;;4978472;28;20057;-62
2022/10/30 00:50:25;;;;;;;7.20;6.50;;;22.90;51.60;;;;;;4978109;28;20518;-62
2022/10/30 00:53:05;;;;;;;6.38;5.65;;;22.90;51.60;;;;;;4978422;28;20057;-62
2022/10/30 00:55:42;;;;;;;7.15;6.15;;;22.90;51.60;;;;;;4976691;28;20061;-62
2022/10/30 00:58:14;;;;;;;7.18;5.90;;;22.90;51.60;;;;;;4978295;28;20047;-62
2022/10/30 01:00:45;;;;;;;6.20;5.60;;;22.90;51.60;;;;;;4978150;28;20055;-62
2022/10/30 01:03:13;;;;;;;8.10;6.35;;;22.90;51.60;;;;;;4978028;28;20511;-63
2022/10/30 01:05:44;;;;;;;6.53;5.85;;;22.90;51.50;;;;;;4978414;28;20053;-62
2022/10/30 01:08:11;;;;;;;6.65;5.95;;;22.90;51.50;;;;;;4977845;28;20054;-62
2022/10/30 01:10:39;;;;;;;6.47;5.82;;;22.90;51.50;;;;;;4978037;28;20050;-63
2022/10/30 01:13:06;;;;;;;9.15;6.20;;;22.90;51.50;;;;;;4977989;28;20062;-63
2022/10/30 01:15:39;;;;;;;7.95;6.95;;;22.90;51.50;;;;;;4978044;28;20061;-63
2022/10/30 01:18:42;;;;;;;7.28;6.22;;;22.90;51.50;;;;;;4977977;28;20047;-63
2022/10/30 01:21:37;;;;;;;7.07;6.03;;;23.00;51.50;;;;;;4977616;28;20058;-62
2022/10/30 01:24:38;;;;;;;7.45;6.57;;;23.00;51.50;;;;;;4978112;28;20042;-63
2022/10/30 01:27:32;;;;;;;7.20;6.10;;;23.00;51.50;;;;;;4977710;28;20043;-62
2022/10/30 01:30:17;;;;;;;7.35;6.43;;;22.90;51.40;;;;;;4977727;28;20129;-62
2022/10/30 01:33:23;;;;;;;7.10;6.35;;;23.00;51.50;;;;;;4976711;28;20058;-62
2022/10/30 01:36:13;;;;;;;6.63;5.93;;;22.90;51.40;;;;;;4977443;28;20133;-62
2022/10/30 01:38:47;;;;;;;6.30;5.70;;;22.90;51.40;;;;;;4978036;28;20073;-62
2022/10/30 01:41:14;;;;;;;7.10;6.05;;;22.90;51.40;;;;;;4976280;28;20042;-62
2022/10/30 01:43:44;;;;;;;7.40;6.18;;;22.90;52.00;;;;;;4977192;28;20050;-62
2022/10/30 01:46:40;;;;;;;7.30;6.10;;;22.90;51.40;;;;;;4981302;28;20049;-62
2022/10/30 01:49:36;;;;;;;6.70;6.00;;;22.90;51.40;;;;;;4981285;28;20050;-62
2022/10/30 01:52:40;;;;;;;6.00;5.38;;;22.90;51.40;;;;;;4980110;28;20054;-62
2022/10/30 01:55:26;;;;;;;6.72;5.95;;;22.90;51.40;;;;;;4980972;28;20055;-62
2022/10/30 01:58:19;;;;;;;7.13;6.28;;;22.90;51.40;;;;;;4981348;28;20133;-62
2022/10/30 02:00:57;;;;;;;7.18;5.72;;;22.90;51.40;;;;;;4980095;28;20070;-62
2022/10/30 02:03:26;;;;;;;7.55;6.40;;;22.90;51.40;;;;;;4980881;28;20051;-62
2022/10/30 02:05:53;;;;;;;6.53;5.70;;;22.90;51.40;;;;;;4981013;28;20082;-62
2022/10/30 02:08:21;;;;;;;6.13;5.53;;;22.90;51.40;;;;;;4980859;28;20058;-62
2022/10/30 02:10:51;;;;;;;7.05;6.20;;;22.90;51.40;;;;;;4980919;28;20522;-62
2022/10/30 02:13:19;;;;;;;7.32;6.45;;;22.90;51.40;;;;;;4981381;28;20046;-62
2022/10/30 02:15:46;;;;;;;7.03;5.90;;;22.90;51.40;;;;;;4981059;28;20047;-62
2022/10/30 02:18:13;;;;;;;7.93;6.68;;;22.90;51.40;;;;;;4980573;28;20047;-63
2022/10/30 02:20:41;;;;;;;6.55;5.78;;;22.90;51.40;;;;;;4980572;28;20491;-62
2022/10/30 02:23:12;;;;;;;6.85;6.15;;;22.90;51.40;;;;;;4980628;28;20050;-62
2022/10/30 02:25:39;;;;;;;7.03;6.32;;;22.90;51.50;;;;;;4979751;28;20054;-62
2022/10/30 02:28:06;;;;;;;6.45;5.82;;;22.90;51.50;;;;;;4979650;28;20054;-62
2022/10/30 02:30:33;;;;;;;6.32;5.50;;;22.90;51.50;;;;;;4980368;28;20069;-62
2022/10/30 02:33:00;;;;;;;6.78;6.03;;;22.90;51.60;;;;;;4980385;28;20499;-63
2022/10/30 02:35:29;;;;;;;7.10;6.13;;;22.90;51.60;;;;;;4980317;28;20089;-62
2022/10/30 02:37:56;;;;;;;6.07;5.32;;;22.90;51.60;;;;;;4980463;28;20054;-62
2022/10/30 02:40:23;;;;;;;5.65;5.05;;;22.90;51.70;;;;;;4980232;28;20053;-62
2022/10/30 02:42:52;;;;;;;6.97;6.28;;;22.90;51.60;;;;;;4980217;28;20097;-62
2022/10/30 02:45:20;;;;;;;5.97;5.38;;;22.90;51.60;;;;;;4980495;28;20069;-63
2022/10/30 02:47:47;;;;;;;6.90;6.20;;;22.90;51.60;;;;;;4980262;28;20125;-63
2022/10/30 02:50:14;;;;;;;6.80;6.10;;;22.90;51.60;;;;;;4980185;28;20050;-62
2022/10/30 02:52:41;;;;;;;7.30;6.45;;;22.90;51.60;;;;;;4980187;28;20055;-62
2022/10/30 02:55:09;;;;;;;6.32;5.72;;;22.90;51.60;;;;;;4979100;28;20058;-62
2022/10/30 02:57:36;;;;;;;5.60;5.10;;;22.90;51.50;;;;;;4979910;28;20492;-62
2022/10/30 03:00:04;;;;;;;8.23;6.60;;;22.90;51.50;;;;;;4980384;28;20232;-59
2022/10/30 03:02:31;;;;;;;6.43;5.82;;;22.90;51.50;;;;;;4978827;28;20043;-62
2022/10/30 03:04:58;;;;;;;6.78;5.88;;;22.90;51.50;;;;;;4980864;28;20054;-62
2022/10/30 03:07:25;;;;;;;6.68;5.97;;;22.90;51.50;;;;;;4979640;28;20054;-62
2022/10/30 03:09:53;;;;;;;7.13;6.38;;;22.90;51.50;;;;;;4979892;28;20133;-63
2022/10/30 03:12:21;;;;;;;6.10;5.50;;;22.90;51.40;;;;;;4979726;28;20050;-62
2022/10/30 03:14:48;;;;;;;6.75;5.75;;;22.90;51.40;;;;;;4978634;28;20055;-62
2022/10/30 03:17:15;;;;;;;6.57;5.80;;;22.90;51.40;;;;;;4979723;28;20047;-62
2022/10/30 03:19:42;;;;;;;6.43;5.80;;;22.90;51.40;;;;;;4979477;28;20057;-62
2022/10/30 03:22:09;;;;;;;6.15;5.55;;;22.90;51.40;;;;;;4979542;28;20530;-62
2022/10/30 03:24:37;;;;;;;6.85;5.97;;;22.90;51.40;;;;;;4978746;28;20505;-62
2022/10/30 03:27:04;;;;;;;7.05;6.18;;;22.90;51.50;;;;;;4979600;28;20072;-62
2022/10/30 03:29:31;;;;;;;6.57;5.93;;;22.90;51.40;;;;;;4979822;28;20054;-63
2022/10/30 03:31:58;;;;;;;5.75;5.15;;;22.90;51.40;;;;;;4980315;28;20081;-63
2022/10/30 03:34:26;;;;;;;6.10;5.38;;;22.90;51.40;;;;;;4978381;28;20055;-62
2022/10/30 03:36:53;;;;;;;6.38;5.47;;;22.90;51.40;;;;;;4979333;28;20507;-62
2022/10/30 03:39:20;;;;;;;7.38;6.03;;;22.90;51.40;;;;;;4979185;28;20534;-63
2022/10/30 03:41:47;;;;;;;6.45;5.85;;;22.90;51.40;;;;;;4979414;28;20046;-62
2022/10/30 03:44:14;;;;;;;6.30;5.63;;;22.90;51.40;;;;;;4979408;28;20487;-62
2022/10/30 03:46:42;;;;;;;6.25;5.53;;;22.90;51.40;;;;;;4978999;28;20054;-62
2022/10/30 03:49:09;;;;;;;6.47;5.82;;;22.90;51.40;;;;;;4979357;28;20051;-62
2022/10/30 03:51:36;;;;;;;6.38;5.55;;;22.90;51.40;;;;;;4979072;28;20066;-61
2022/10/30 03:54:03;;;;;;;5.40;4.88;;;22.90;51.40;;;;;;4979262;28;20047;-62
2022/10/30 03:56:30;;;;;;;6.80;5.85;;;22.90;51.40;;;;;;4978873;28;20050;-63
2022/10/30 03:58:57;;;;;;;5.30;4.80;;;22.90;51.40;;;;;;4978616;28;20047;-62
2022/10/30 04:01:24;;;;;;;5.93;5.35;;;22.90;51.40;;;;;;4977903;28;20055;-62
2022/10/30 04:03:51;;;;;;;7.18;5.80;;;22.90;51.50;;;;;;4977499;28;20051;-63
2022/10/30 04:06:18;;;;;;;5.85;5.25;;;22.90;51.40;;;;;;4976825;28;20057;-61
2022/10/30 04:08:45;;;;;;;6.10;5.50;;;22.90;51.40;;;;;;4978602;28;20050;-63
2022/10/30 04:11:12;;;;;;;6.57;5.72;;;22.90;51.50;;;;;;4978700;28;20057;-62
2022/10/30 04:13:39;;;;;;;6.45;5.68;;;22.90;52.00;;;;;;4977366;28;20491;-62
2022/10/30 04:16:06;;;;;;;6.30;5.65;;;22.90;51.50;;;;;;4978655;28;20053;-62
2022/10/30 04:18:33;;;;;;;6.28;5.68;;;22.90;51.50;;;;;;4978796;28;20419;-62
2022/10/30 04:21:01;;;;;;;5.85;5.25;;;22.80;51.50;;;;;;4978819;28;20051;-62
2022/10/30 04:23:28;;;;;;;5.85;4.95;;;22.90;51.60;;;;;;4978761;28;20051;-62
2022/10/30 04:25:55;;;;;;;5.88;5.28;;;22.90;51.60;;;;;;4978728;28;20130;-62
2022/10/30 04:28:22;;;;;;;5.90;5.25;;;22.90;51.60;;;;;;4977219;28;20051;-62
2022/10/30 04:30:49;;;;;;;5.97;5.38;;;22.80;51.60;;;;;;4977185;28;20057;-63
2022/10/30 04:33:16;;;;;;;5.28;4.60;;;22.80;51.60;;;;;;4978164;28;20057;-63
2022/10/30 04:35:43;;;;;;;6.13;5.53;;;22.80;51.60;;;;;;4978282;28;20054;-62
2022/10/30 04:38:13;;;;;;;6.25;5.53;;;22.80;51.60;;;;;;4978203;28;20053;-62
2022/10/30 04:40:42;;;;;;;6.33;5.47;;;22.80;51.60;;;;;;4978194;28;20130;-62
2022/10/30 04:43:10;;;;;;;6.50;5.18;;;22.80;51.50;;;;;;4978465;28;20046;-63
2022/10/30 04:45:38;;;;;;;5.35;4.78;;;22.80;51.50;;;;;;4978375;28;20423;-62
2022/10/30 04:48:09;;;;;;;6.38;5.75;;;22.80;51.50;;;;;;4977013;28;20403;-63
2022/10/30 04:50:36;;;;;;;5.28;4.78;;;22.80;51.50;;;;;;4978379;28;20514;-62
2022/10/30 04:53:09;;;;;;;6.05;5.45;;;22.80;51.40;;;;;;4978106;28;20062;-62
2022/10/30 04:55:36;;;;;;;5.95;5.35;;;22.90;51.50;;;;;;4977936;28;20054;-63
2022/10/30 04:58:03;;;;;;;6.03;5.43;;;22.90;51.50;;;;;;4978064;28;20065;-63
2022/10/30 05:00:31;;;;;;;6.57;5.82;;;22.90;51.50;;;;;;4977861;28;20062;-62
2022/10/30 05:03:02;;;;;;;5.90;5.30;;;22.90;51.50;;;;;;4978161;28;20476;-62
2022/10/30 05:05:30;;;;;;;5.50;5.00;;;22.90;51.50;;;;;;4978085;28;20054;-62
2022/10/30 05:07:58;;;;;;;5.53;4.97;;;22.90;51.40;;;;;;4977852;28;20476;-62
2022/10/30 05:10:26;;;;;;;4.57;4.18;;;22.90;51.40;;;;;;4977817;28;20057;-62
2022/10/30 05:12:53;;;;;;;6.03;5.43;;;22.80;51.40;;;;;;4978242;28;20046;-62
2022/10/30 05:15:20;;;;;;;5.25;4.75;;;22.80;51.40;;;;;;4978108;28;20460;-62
2022/10/30 05:17:55;;;;;;;5.60;5.10;;;22.90;51.40;;;;;;4978798;28;20051;-62
2022/10/30 05:20:22;;;;;;;5.57;4.75;;;22.80;51.40;;;;;;4980954;28;20122;-62
2022/10/30 05:22:54;;;;;;;5.35;4.85;;;22.80;51.40;;;;;;4981821;28;20047;-62
2022/10/30 05:25:22;;;;;;;5.72;4.97;;;22.80;51.40;;;;;;4981924;28;20051;-62
2022/10/30 05:27:50;;;;;;;5.85;5.00;;;22.80;51.40;;;;;;4981745;28;20054;-62
2022/10/30 05:30:16;;;;;;;5.32;4.82;;;22.80;51.40;;;;;;4981441;28;20054;-59
2022/10/30 05:32:44;;;;;;;6.75;5.30;;;22.80;51.40;;;;;;4981929;28;20098;-62
2022/10/30 05:35:11;;;;;;;5.40;4.78;;;22.90;51.90;;;;;;4981669;28;20051;-62
2022/10/30 05:37:38;;;;;;;5.07;4.57;;;22.80;51.30;;;;;;4981497;28;20522;-62
2022/10/30 05:40:06;;;;;;;5.25;4.75;;;22.80;51.10;;;;;;4980232;28;20126;-62
2022/10/30 05:42:33;;;;;;;6.63;5.72;;;22.80;51.10;;;;;;4981513;28;20054;-62
2022/10/30 05:44:59;;;;;;;6.05;5.45;;;22.80;51.00;;;;;;4981506;28;20057;-62
2022/10/30 05:47:28;;;;;;;6.93;4.97;;;22.80;50.90;;;;;;4981635;28;20616;-62
2022/10/30 05:49:55;;;;;;;5.68;5.07;;;22.80;50.90;;;;;;4980086;28;20065;-62
2022/10/30 05:52:22;;;;;;;4.88;4.47;;;22.80;50.80;;;;;;4981547;28;20499;-62
2022/10/30 05:54:49;;;;;;;6.05;5.25;;;22.80;50.80;;;;;;4980084;28;20101;-62
2022/10/30 05:57:16;;;;;;;5.18;4.68;;;22.80;50.80;;;;;;4980303;28;20058;-62
2022/10/30 05:59:43;;;;;;;5.30;4.80;;;22.80;50.70;;;;;;4980960;28;20054;-62
2022/10/30 06:02:10;;;;;;;4.90;4.50;;;22.80;50.70;;;;;;4981256;28;20065;-62
2022/10/30 06:04:37;;;;;;;5.70;5.07;;;22.80;50.70;;;;;;4981041;28;20046;-63
2022/10/30 06:07:04;;;;;;;6.22;5.18;;;22.80;50.70;;;;;;4981063;28;20062;-62
2022/10/30 06:09:31;;;;;;;5.40;4.90;;;22.80;50.60;;;;;;4980937;28;20057;-62
2022/10/30 06:11:58;;;;;;;4.80;4.30;;;22.80;50.60;;;;;;4980907;28;20510;-62
2022/10/30 06:14:25;;;;;;;5.28;4.78;;;22.80;50.50;;;;;;4981226;28;20415;-62
2022/10/30 06:16:52;;;;;;;5.53;5.03;;;22.80;50.40;;;;;;4980746;28;20047;-62
2022/10/30 06:19:19;;;;;;;9.77;5.93;;;22.80;50.40;;;;;;4981421;28;20085;-62
2022/10/30 06:21:47;;;;;;;5.05;4.55;;;22.80;50.30;;;;;;4980902;28;20051;-62
2022/10/30 06:24:14;;;;;;;5.47;4.95;;;22.80;50.20;;;;;;4981153;28;20055;-62
2022/10/30 06:26:41;;;;;;;4.88;4.38;;;22.80;50.70;;;;;;4980577;28;20051;-62
2022/10/30 06:29:08;;;;;;;5.10;4.60;;;22.80;50.10;;;;;;4979226;28;20051;-62
2022/10/30 06:31:35;;;;;;;5.00;4.60;;;22.80;50.10;;;;;;4979289;28;20059;-62
2022/10/30 06:34:02;;;;;;;5.00;4.57;;;22.80;50.00;;;;;;4980926;28;20051;-62
2022/10/30 06:36:29;;;;;;;4.75;4.25;;;22.80;50.00;;;;;;4980231;28;20511;-62
2022/10/30 06:38:56;;;;;;;5.30;4.72;;;22.80;49.90;;;;;;4980441;28;20595;-62
2022/10/30 06:41:23;;;;;;;5.25;4.68;;;22.90;49.90;;;;;;4980112;28;20051;-62
2022/10/30 06:43:56;;;;;;;4.97;4.57;;;22.80;49.80;;;;;;4964145;28;20082;-62
2022/10/30 06:46:23;;;;;;;4.63;4.22;;;22.90;49.80;;;;;;4980546;28;20066;-62
2022/10/30 06:48:56;;;;;;;5.15;4.65;;;22.80;49.70;;;;;;4980273;28;20495;-62
2022/10/30 06:51:23;;;;;;;5.38;4.85;;;22.90;49.70;;;;;;4980435;28;20047;-62
2022/10/30 06:53:51;;;;;;;5.18;4.68;;;22.90;49.60;;;;;;4979220;28;20480;-63
2022/10/30 06:56:18;;;;;;;5.13;4.63;;;22.90;49.60;;;;;;4979153;28;20047;-62
2022/10/30 06:58:45;;;;;;;4.78;4.28;;;22.90;49.60;;;;;;4980183;28;20058;-62
2022/10/30 07:01:12;;;;;;;4.90;4.40;;;22.90;49.50;;;;;;4980181;28;20059;-62
2022/10/30 07:03:39;;;;;;;4.68;4.28;;;22.90;49.40;;;;;;4980937;28;20074;-62
2022/10/30 07:06:06;;;;;;;4.60;4.20;;;22.90;49.40;;;;;;4962837;28;20059;-62
2022/10/30 07:08:33;;;;;;;4.72;4.32;;;22.90;49.40;;;;;;4980196;28;20053;-62
2022/10/30 07:11:00;;;;;;;4.57;4.18;;;22.80;49.30;;;;;;4979644;28;20051;-62
2022/10/30 07:13:27;;;;;;;4.20;3.90;;;22.90;49.30;;;;;;4979784;28;20055;-63
2022/10/30 07:15:54;;;;;;;5.05;4.63;;;22.90;49.30;;;;;;4947111;28;20479;-62
2022/10/30 07:18:21;;;;;;;4.95;4.45;;;22.90;49.20;;;;;;4980032;28;20057;-63
2022/10/30 07:20:55;;;;;;;4.53;4.13;;;22.90;49.10;;;;;;4979640;28;20502;-63
2022/10/30 07:23:22;;;;;;;4.90;4.50;;;22.90;49.10;;;;;;4980034;28;20516;-62
2022/10/30 07:25:49;;;;;;;4.65;4.25;;;22.90;49.00;;;;;;4979694;28;20500;-62
2022/10/30 07:28:16;;;;;;;5.05;4.60;;;22.90;49.00;;;;;;4979698;28;20050;-62
2022/10/30 07:30:43;;;;;;;4.75;4.35;;;22.90;48.90;;;;;;4979510;28;20384;-62
2022/10/30 07:33:10;;;;;;;4.72;4.30;;;23.00;48.90;;;;;;4979376;28;20050;-62
2022/10/30 07:35:37;;;;;;;4.82;4.43;;;23.00;48.90;;;;;;4979391;28;20058;-62
2022/10/30 07:38:10;;;;;;;5.53;4.90;;;23.00;48.80;;;;;;4980288;28;20047;-62
2022/10/30 07:40:37;;;;;;;5.05;4.55;;;23.00;48.80;;;;;;4979303;28;20419;-63
2022/10/30 07:43:04;;;;;;;4.05;3.75;;;23.00;48.70;;;;;;4978452;28;20050;-62
2022/10/30 07:45:32;;;;;;;4.68;4.20;;;23.00;48.70;;;;;;4979760;28;20051;-63
2022/10/30 07:47:59;;;;;;;4.70;4.30;;;23.00;48.60;;;;;;4979272;28;20050;-62
2022/10/30 07:50:27;;;;;;;4.20;3.80;;;23.00;48.60;;;;;;4979130;28;20058;-62
2022/10/30 07:52:54;;;;;;;4.68;4.28;;;23.10;48.60;;;;;;4979485;28;20117;-62
2022/10/30 07:55:22;;;;;;;4.20;3.90;;;23.00;48.50;;;;;;4979127;28;20129;-62
2022/10/30 07:57:49;;;;;;;4.25;3.95;;;23.10;48.50;;;;;;4977760;28;20047;-62
2022/10/30 08:00:17;;;;;;;4.50;4.10;;;23.10;48.40;;;;;;4978849;28;20069;-62
2022/10/30 08:02:49;;;;;;;4.38;3.97;;;23.10;48.40;;;;;;4977530;28;20046;-62
2022/10/30 08:05:17;;;;;;;3.72;3.42;;;23.10;48.90;;;;;;4978696;28;20093;-62
2022/10/30 08:07:45;;;;;;;5.45;4.88;;;23.10;48.30;;;;;;4978939;28;20047;-62
2022/10/30 08:10:12;;;;;;;4.85;4.45;;;23.10;48.30;;;;;;4979309;28;20392;-62
2022/10/30 08:12:42;;;;;;;5.10;4.60;;;23.20;48.30;;;;;;4978754;28;20050;-62
2022/10/30 08:15:10;;;;;;;3.88;3.58;;;23.20;48.20;;;;;;4978608;28;20053;-62
2022/10/30 08:17:42;;;;;;;4.60;4.20;;;23.20;48.20;;;;;;4978533;28;20051;-62
2022/10/30 08:20:11;;;;;;;4.65;4.25;;;23.20;48.10;;;;;;4978550;28;20500;-62
2022/10/30 08:22:50;;;;;;;4.45;4.05;;;23.30;48.10;;;;;;4978633;28;20055;-63
2022/10/30 08:25:19;;;;;;;4.60;4.20;;;23.30;48.00;;;;;;4977387;28;20050;-62
2022/10/30 08:28:00;;;;;;;4.57;4.18;;;23.30;48.00;;;;;;4977492;28;20050;-63
2022/10/30 08:30:33;;;;;;;4.15;3.85;;;23.30;47.90;;;;;;4977167;28;20054;-63
2022/10/30 08:33:02;;;;;;;4.70;4.30;;;23.40;47.90;;;;;;4978688;28;20051;-63
2022/10/30 08:35:29;;;;;;;4.45;4.15;;;23.40;47.80;;;;;;4978409;28;20599;-62
2022/10/30 08:37:57;;;;;;;4.93;4.43;;;23.40;47.80;;;;;;4978524;28;20059;-60
2022/10/30 08:40:26;;;;;;;4.60;4.20;;;23.40;47.70;;;;;;4977077;28;20043;-63
2022/10/30 08:42:54;;;;;;;4.30;3.90;;;23.40;47.70;;;;;;4978276;28;20047;-62
2022/10/30 08:45:23;;;;;;;4.82;4.35;;;23.40;48.10;;;;;;4977305;28;20042;-62
2022/10/30 08:48:05;;;;;;;4.53;4.13;;;23.40;47.50;;;;;;4978449;28;20057;-62
2022/10/30 08:50:33;;;;;;;4.88;4.30;;;23.50;47.50;;;;;;4978356;28;20407;-62
2022/10/30 08:53:03;;;;;;;5.20;4.70;;;23.50;47.40;;;;;;4978311;28;20053;-62
2022/10/30 08:55:32;;;;;;;5.13;4.70;;;23.50;47.50;;;;;;4978275;28;20058;-62
2022/10/30 08:57:59;;;;;;;4.53;4.13;;;23.50;47.40;;;;;;4978723;28;20391;-63
2022/10/30 09:00:27;;;;;;;4.35;4.05;;;23.50;47.30;;;;;;4977793;28;20066;-63
2022/10/30 09:02:55;;;;;;;4.93;4.53;;;23.50;47.30;;;;;;4978460;28;20047;-63
2022/10/30 09:05:22;;;;;;;6.53;5.03;;;23.60;47.30;;;;;;4978234;28;20051;-63
2022/10/30 09:07:56;;;;;;;4.97;4.57;;;23.60;47.20;;;;;;4977951;28;20050;-63
2022/10/30 09:10:23;;;;;;;5.22;4.72;;;23.60;47.20;;;;;;4977794;28;20055;-63
2022/10/30 09:12:55;;;;;;;5.55;5.05;;;23.60;47.20;;;;;;4977846;28;20054;-63
2022/10/30 09:15:23;;;;;;;4.93;4.43;;;23.60;47.10;;;;;;4977798;28;20057;-63
2022/10/30 09:17:56;;;;;;;6.70;5.38;;;23.60;47.00;;;;;;4978172;28;20046;-62
2022/10/30 09:20:24;;;;;;;5.47;4.97;;;23.70;47.50;;;;;;4978103;28;20051;-62
2022/10/30 09:22:51;;;;;;;5.90;5.30;;;23.70;46.80;;;;;;4978171;28;20058;-62
2022/10/30 09:25:18;;;;;;;5.57;5.00;;;23.70;46.70;;;;;;4976583;28;20051;-62
2022/10/30 09:27:46;;;;;;;6.20;5.32;;;23.70;46.70;;;;;;4977735;28;20054;-62
2022/10/30 09:30:13;;;;;;;5.97;5.38;;;23.70;46.70;;;;;;4977551;28;20043;-60
2022/10/30 09:32:40;;;;;;;6.18;5.53;;;23.70;46.70;;;;;;4977956;28;20055;-62
2022/10/30 09:35:08;;;;;;;4.82;4.32;;;23.80;46.60;;;;;;4978130;28;20050;-62
2022/10/30 09:37:36;;;;;;;6.30;5.43;;;23.80;46.50;;;;;;4977640;28;20439;-62
2022/10/30 09:40:04;;;;;;;5.35;4.85;;;23.80;46.50;;;;;;4977696;28;20126;-62
2022/10/30 09:42:45;;;;;;;6.43;5.72;;;23.80;46.60;;;;;;4977898;28;20058;-62
2022/10/30 09:45:47;;;;;;;6.10;5.47;;;23.80;46.40;;;;;;4978146;28;20051;-63
2022/10/30 09:48:46;;;;;;;6.00;5.30;;;23.80;46.30;;;;;;4978272;28;20051;-62
2022/10/30 09:51:45;;;;;;;5.68;5.07;;;23.80;46.20;;;;;;4977545;28;20506;-62
2022/10/30 09:54:37;;;;;;;6.37;5.77;;;23.80;46.10;;;;;;4965098;28;20054;-62
2022/10/30 09:57:31;;;;;;;5.55;5.05;;;23.90;46.20;;;;;;4977498;28;20281;-62
2022/10/30 10:00:09;;;;;;;6.43;5.82;;;23.90;46.10;;;;;;4977487;28;20054;-62
2022/10/30 10:03:16;;;;;;;6.10;5.50;;;23.90;46.10;;;;;;4977295;28;20058;-62
2022/10/30 10:05:54;;;;;;;6.07;5.47;;;23.90;46.00;;;;;;4979239;28;20443;-62
2022/10/30 10:08:49;;;;;;;5.90;5.30;;;23.90;45.90;;;;;;4980047;28;20107;-62
2022/10/30 10:11:32;;;;;;;5.70;5.20;;;24.00;45.90;;;;;;4980977;28;20047;-62
2022/10/30 10:14:08;;;;;;;6.07;5.47;;;24.00;45.80;;;;;;4981037;28;20047;-63
2022/10/30 10:16:39;;;;;;;7.32;6.55;;;24.00;45.80;;;;;;4979552;28;20058;-62
2022/10/30 10:19:32;;;;;;;7.80;5.15;;;24.10;45.80;;;;;;4979613;28;20055;-63
2022/10/30 10:22:02;;;;;;;5.95;5.25;;;24.10;45.80;;;;;;4980477;28;20503;-62
2022/10/30 10:24:33;;;;;;;6.60;5.53;;;24.10;45.70;;;;;;4979520;28;20050;-62
2022/10/30 10:27:40;;;;;;;5.95;5.30;;;24.10;45.70;;;;;;4980855;28;20285;-62
2022/10/30 10:30:19;;;;;;;6.18;5.55;;;24.10;45.70;;;;;;4979763;28;20054;-62
2022/10/30 10:33:25;;;;;;;6.00;5.50;;;24.10;45.60;;;;;;4964047;28;20133;-63
2022/10/30 10:36:27;;;;;;;5.43;4.93;;;24.10;45.60;;;;;;4980563;28;20046;-63
2022/10/30 10:39:22;;;;;;;6.90;6.20;;;24.10;45.60;;;;;;4979664;28;20047;-63
2022/10/30 10:42:05;;;;;;;5.82;5.32;;;24.10;45.50;;;;;;4980563;28;20119;-63
2022/10/30 10:45:00;;;;;;;6.00;5.40;;;24.20;45.50;;;;;;4980249;28;20119;-63
2022/10/30 10:48:06;;;;;;;7.78;5.25;;;24.20;45.50;;;;;;4979196;28;20074;-63
2022/10/30 10:50:40;;;;;;;6.55;5.93;;;24.20;45.50;;;;;;4979922;28;20051;-63
2022/10/30 10:53:21;;;;;;;6.18;5.57;;;24.20;45.50;;;;;;4980313;28;20503;-63
2022/10/30 10:55:52;;;;;;;6.50;5.78;;;24.20;45.50;;;;;;4980205;28;20502;-63
2022/10/30 10:58:50;;;;;;;5.70;5.10;;;24.20;45.50;;;;;;4980426;28;20051;-60
2022/10/30 11:01:22;;;;;;;6.05;5.45;;;24.20;45.50;;;;;;4980082;28;20056;-63
2022/10/30 11:03:56;;;;;;;6.75;6.00;;;24.20;45.50;;;;;;4980366;28;20110;-63
2022/10/30 11:06:27;;;;;;;6.13;5.50;;;24.20;45.40;;;;;;4980118;28;20054;-62
2022/10/30 11:09:18;;;;;;;6.15;5.50;;;24.20;45.50;;;;;;4979020;28;20069;-62
2022/10/30 11:11:50;;;;;;;6.65;5.60;;;24.20;45.40;;;;;;4979744;28;20081;-62
2022/10/30 11:14:20;;;;;;;6.00;5.40;;;24.20;45.40;;;;;;4979970;28;20066;-62
2022/10/30 11:17:18;;;;;;;5.72;5.13;;;24.20;45.40;;;;;;4979389;28;20051;-62
2022/10/30 11:19:47;;;;;;;5.72;5.13;;;24.20;45.50;;;;;;4978766;28;20403;-63
2022/10/30 11:22:35;;;;;;;6.32;5.20;;;24.20;45.50;;;;;;4979425;28;20545;-62
2022/10/30 11:25:21;;;;;;;6.28;5.68;;;24.20;45.40;;;;;;4979576;28;20400;-62
2022/10/30 11:27:57;;;;;;;5.97;5.38;;;24.20;45.40;;;;;;4979691;28;20507;-63
2022/10/30 11:30:27;;;;;;;6.28;5.50;;;24.20;45.40;;;;;;4979322;28;20050;-63
2022/10/30 11:32:55;;;;;;;6.88;6.20;;;24.20;45.40;;;;;;4979858;28;20234;-62
2022/10/30 11:35:24;;;;;;;5.95;5.45;;;24.20;45.40;;;;;;4978385;28;20051;-63
2022/10/30 11:38:12;;;;;;;5.65;5.15;;;24.20;45.40;;;;;;4979502;28;20126;-62
2022/10/30 11:40:47;;;;;;;6.10;5.50;;;24.20;45.40;;;;;;4979523;28;20058;-62
2022/10/30 11:43:19;;;;;;;6.18;5.57;;;24.20;45.40;;;;;;4978080;28;20055;-62
2022/10/30 11:45:46;;;;;;;5.88;5.28;;;24.30;45.50;;;;;;4979708;28;20455;-63
2022/10/30 11:48:29;;;;;;;8.52;5.88;;;24.30;45.50;;;;;;4979276;28;20470;-62
2022/10/30 11:51:01;;;;;;;8.13;6.07;;;24.20;45.40;;;;;;4979115;28;20556;-63
2022/10/30 11:53:46;;;;;;;6.25;5.65;;;24.20;45.50;;;;;;4979419;28;20098;-62
2022/10/30 11:56:21;;;;;;;5.97;5.38;;;24.20;45.50;;;;;;4978948;28;20053;-62
2022/10/30 11:58:52;;;;;;;6.53;5.80;;;24.20;45.50;;;;;;4979263;28;20065;-62
2022/10/30 12:01:25;;;;;;;6.75;5.70;;;24.20;45.50;;;;;;4946405;28;20361;-62
2022/10/30 12:03:54;;;;;;;6.30;5.68;;;24.20;45.50;;;;;;4978675;28;20050;-61
2022/10/30 12:06:28;;;;;;;6.15;5.25;;;24.20;45.50;;;;;;4978882;28;20055;-63
2022/10/30 12:09:19;;;;;;;8.35;6.10;;;24.20;45.50;;;;;;4978984;28;20047;-62
2022/10/30 12:11:47;;;;;;;6.22;5.68;;;24.20;45.50;;;;;;4978701;28;20055;-62
2022/10/30 12:14:23;;;;;;;6.70;5.88;;;24.20;45.50;;;;;;4979059;28;20093;-63
2022/10/30 12:16:56;;;;;;;7.18;6.13;;;24.30;45.50;;;;;;4978677;28;20081;-62
2022/10/30 12:19:24;;;;;;;6.32;5.72;;;24.30;45.50;;;;;;4979011;28;20046;-62
2022/10/30 12:21:57;;;;;;;6.55;5.85;;;24.30;45.50;;;;;;4978656;28;20058;-62
2022/10/30 12:24:31;;;;;;;6.95;6.20;;;24.30;45.50;;;;;;4977386;28;20507;-62
2022/10/30 12:27:02;;;;;;;7.72;6.68;;;24.30;45.50;;;;;;4978544;28;20055;-62
2022/10/30 12:30:02;;;;;;;6.97;6.28;;;24.30;45.50;;;;;;4978060;28;20054;-62
2022/10/30 12:32:54;;;;;;;7.55;5.80;;;24.30;45.40;;;;;;4978471;28;20070;-62
2022/10/30 12:35:45;;;;;;;7.47;6.60;;;24.30;45.40;;;;;;4978747;28;20081;-62
2022/10/30 12:38:23;;;;;;;7.30;6.30;;;24.30;45.40;;;;;;4977639;28;20046;-62
2022/10/30 12:41:15;;;;;;;8.75;6.63;;;24.30;45.40;;;;;;4978326;28;20051;-62
2022/10/30 12:43:53;;;;;;;6.80;5.70;;;24.30;45.40;;;;;;4978478;28;20066;-62
2022/10/30 12:46:40;;;;;;;7.18;5.80;;;24.30;45.50;;;;;;4976998;28;20388;-62
2022/10/30 12:49:19;;;;;;;7.60;6.82;;;24.30;45.40;;;;;;4978237;28;20066;-63
2022/10/30 12:52:00;;;;;;;6.18;5.43;;;24.30;45.50;;;;;;4978149;28;20054;-62
2022/10/30 12:54:53;;;;;;;7.10;6.35;;;24.30;46.00;;;;;;4978361;28;20054;-62
2022/10/30 12:57:29;;;;;;;6.68;5.82;;;24.30;45.50;;;;;;4978298;28;20046;-62
2022/10/30 13:00:17;;;;;;;6.72;5.95;;;24.30;45.60;;;;;;4978229;28;20077;-62
2022/10/30 13:02:56;;;;;;;7.22;6.00;;;24.30;45.60;;;;;;4977915;28;20488;-62
2022/10/30 13:05:46;;;;;;;6.95;6.25;;;24.30;45.60;;;;;;4978206;28;20054;-62
2022/10/30 13:08:37;;;;;;;7.03;6.03;;;24.30;45.60;;;;;;4978209;28;20051;-62
2022/10/30 13:11:27;;;;;;;6.82;6.07;;;24.30;45.60;;;;;;4977760;28;20058;-62
2022/10/30 13:13:57;;;;;;;6.93;5.95;;;24.30;45.70;;;;;;4978231;28;20081;-62
2022/10/30 13:16:29;;;;;;;6.65;6.00;;;24.30;45.70;;;;;;4978062;28;20452;-63